sensor_id;sensor_type;location;lat;lon;timestamp;pressure;altitude;pressure_sealevel;temperature;humidity
33845;BME280;20145;43.118;25.694;2023-07-31T00:01:15;98952.31;;;24.40;68.29
33845;BME280;20145;43.118;25.694;2023-07-31T00:03:40;98957.81;;;24.37;68.90
33845;BME280;20145;43.118;25.694;2023-07-31T00:06:06;98957.69;;;24.38;68.85
33845;BME280;20145;43.118;25.694;2023-07-31T00:08:31;98953.59;;;24.34;69.55
33845;BME280;20145;43.118;25.694;2023-07-31T00:10:57;98955.41;;;24.34;70.19
33845;BME280;20145;43.118;25.694;2023-07-31T00:13:22;98956.81;;;24.26;70.60
33845;BME280;20145;43.118;25.694;2023-07-31T00:15:48;98950.13;;;24.22;70.78
33845;BME280;20145;43.118;25.694;2023-07-31T00:18:14;98965.69;;;24.25;71.67
33845;BME280;20145;43.118;25.694;2023-07-31T00:20:39;98954.91;;;24.17;71.95
33845;BME280;20145;43.118;25.694;2023-07-31T00:23:05;98952.50;;;24.14;72.84
33845;BME280;20145;43.118;25.694;2023-07-31T00:25:30;98948.78;;;24.17;72.41
33845;BME280;20145;43.118;25.694;2023-07-31T00:27:56;98943.78;;;24.25;72.72
33845;BME280;20145;43.118;25.694;2023-07-31T00:30:21;98944.88;;;24.34;72.15
33845;BME280;20145;43.118;25.694;2023-07-31T00:32:47;98946.53;;;24.35;72.24
33845;BME280;20145;43.118;25.694;2023-07-31T00:35:13;98941.50;;;24.32;72.29
33845;BME280;20145;43.118;25.694;2023-07-31T00:37:39;98935.50;;;24.41;72.28
33845;BME280;20145;43.118;25.694;2023-07-31T00:40:04;98931.44;;;24.37;71.88
33845;BME280;20145;43.118;25.694;2023-07-31T00:42:30;98925.94;;;24.40;72.15
33845;BME280;20145;43.118;25.694;2023-07-31T00:44:56;98925.63;;;24.44;72.67
33845;BME280;20145;43.118;25.694;2023-07-31T00:47:21;98930.50;;;24.49;72.51
33845;BME280;20145;43.118;25.694;2023-07-31T00:49:47;98913.75;;;24.50;72.16
33845;BME280;20145;43.118;25.694;2023-07-31T00:52:13;98922.84;;;24.57;72.27
33845;BME280;20145;43.118;25.694;2023-07-31T00:54:39;98910.38;;;24.59;72.45
33845;BME280;20145;43.118;25.694;2023-07-31T00:57:05;98913.50;;;24.53;72.64
33845;BME280;20145;43.118;25.694;2023-07-31T00:59:32;98916.25;;;24.52;72.54
33845;BME280;20145;43.118;25.694;2023-07-31T01:01:58;98898.13;;;24.47;72.91
33845;BME280;20145;43.118;25.694;2023-07-31T01:04:23;98895.16;;;24.52;73.13
33845;BME280;20145;43.118;25.694;2023-07-31T01:09:52;98894.22;;;24.53;73.57
33845;BME280;20145;43.118;25.694;2023-07-31T01:12:23;98896.47;;;24.46;74.12
33845;BME280;20145;43.118;25.694;2023-07-31T01:15:16;98886.13;;;24.43;74.92
33845;BME280;20145;43.118;25.694;2023-07-31T01:17:43;98882.41;;;24.34;74.44
33845;BME280;20145;43.118;25.694;2023-07-31T01:20:20;98880.84;;;24.32;74.75
33845;BME280;20145;43.118;25.694;2023-07-31T01:25:49;98879.63;;;24.36;75.79
33845;BME280;20145;43.118;25.694;2023-07-31T01:28:20;98882.41;;;24.34;75.57
33845;BME280;20145;43.118;25.694;2023-07-31T01:30:48;98878.09;;;24.33;75.64
33845;BME280;20145;43.118;25.694;2023-07-31T01:33:15;98867.06;;;24.28;75.76
33845;BME280;20145;43.118;25.694;2023-07-31T01:35:45;98881.34;;;24.37;76.53
33845;BME280;20145;43.118;25.694;2023-07-31T01:38:11;98880.13;;;24.41;75.72
33845;BME280;20145;43.118;25.694;2023-07-31T01:40:37;98879.19;;;24.42;77.04
33845;BME280;20145;43.118;25.694;2023-07-31T01:43:02;98871.28;;;24.42;77.56
33845;BME280;20145;43.118;25.694;2023-07-31T01:45:28;98872.88;;;24.44;76.74
33845;BME280;20145;43.118;25.694;2023-07-31T01:47:54;98873.69;;;24.45;77.97
33845;BME280;20145;43.118;25.694;2023-07-31T01:50:19;98884.13;;;24.46;77.19
33845;BME280;20145;43.118;25.694;2023-07-31T01:52:45;98884.25;;;24.45;77.13
33845;BME280;20145;43.118;25.694;2023-07-31T01:55:10;98882.75;;;24.41;76.36
33845;BME280;20145;43.118;25.694;2023-07-31T01:57:37;98881.34;;;24.37;76.52
33845;BME280;20145;43.118;25.694;2023-07-31T02:00:03;98879.88;;;24.33;75.59
33845;BME280;20145;43.118;25.694;2023-07-31T02:02:29;98884.44;;;24.31;76.78
33845;BME280;20145;43.118;25.694;2023-07-31T02:04:54;98880.84;;;24.32;76.76
33845;BME280;20145;43.118;25.694;2023-07-31T02:07:20;98880.25;;;24.28;76.91
33845;BME280;20145;43.118;25.694;2023-07-31T02:09:45;98874.84;;;24.30;76.04
33845;BME280;20145;43.118;25.694;2023-07-31T02:12:13;98875.69;;;24.30;76.21
33845;BME280;20145;43.118;25.694;2023-07-31T02:14:40;98873.03;;;24.30;76.10
33845;BME280;20145;43.118;25.694;2023-07-31T02:17:06;98866.81;;;24.31;77.07
33845;BME280;20145;43.118;25.694;2023-07-31T02:19:31;98861.56;;;24.31;77.13
33845;BME280;20145;43.118;25.694;2023-07-31T02:21:57;98855.06;;;24.24;78.74
33845;BME280;20145;43.118;25.694;2023-07-31T02:24:23;98858.91;;;24.20;79.56
33845;BME280;20145;43.118;25.694;2023-07-31T02:26:49;98853.50;;;24.10;79.67
33845;BME280;20145;43.118;25.694;2023-07-31T02:29:14;98858.03;;;24.08;79.33
33845;BME280;20145;43.118;25.694;2023-07-31T02:31:40;98848.69;;;24.04;80.57
33845;BME280;20145;43.118;25.694;2023-07-31T02:34:05;98859.47;;;24.01;80.59
33845;BME280;20145;43.118;25.694;2023-07-31T02:36:31;98868.47;;;23.98;80.60
33845;BME280;20145;43.118;25.694;2023-07-31T02:38:56;98862.59;;;23.95;79.60
33845;BME280;20145;43.118;25.694;2023-07-31T02:41:23;98867.13;;;23.93;79.77
33845;BME280;20145;43.118;25.694;2023-07-31T02:43:48;98868.19;;;23.90;80.07
33845;BME280;20145;43.118;25.694;2023-07-31T02:46:14;98872.63;;;23.90;80.42
33845;BME280;20145;43.118;25.694;2023-07-31T02:48:40;98866.75;;;23.86;81.21
33845;BME280;20145;43.118;25.694;2023-07-31T02:51:05;98871.53;;;23.81;81.42
33845;BME280;20145;43.118;25.694;2023-07-31T02:53:31;98876.63;;;23.71;82.49
33845;BME280;20145;43.118;25.694;2023-07-31T02:55:56;98883.06;;;23.67;82.34
33845;BME280;20145;43.118;25.694;2023-07-31T02:58:22;98878.13;;;23.63;83.37
33845;BME280;20145;43.118;25.694;2023-07-31T03:00:47;98881.75;;;23.62;84.32
33845;BME280;20145;43.118;25.694;2023-07-31T03:03:13;98889.41;;;23.65;85.35
33845;BME280;20145;43.118;25.694;2023-07-31T03:05:38;98891.22;;;23.64;86.40
33845;BME280;20145;43.118;25.694;2023-07-31T03:08:04;98888.56;;;23.64;87.16
33845;BME280;20145;43.118;25.694;2023-07-31T03:10:29;98885.44;;;23.59;89.03
33845;BME280;20145;43.118;25.694;2023-07-31T03:12:55;98884.59;;;23.58;89.28
33845;BME280;20145;43.118;25.694;2023-07-31T03:15:20;98893.34;;;23.59;90.79
33845;BME280;20145;43.118;25.694;2023-07-31T03:17:46;98885.91;;;23.53;91.98
33845;BME280;20145;43.118;25.694;2023-07-31T03:20:11;98877.81;;;23.43;91.13
33845;BME280;20145;43.118;25.694;2023-07-31T03:22:37;98882.84;;;23.46;91.83
33845;BME280;20145;43.118;25.694;2023-07-31T03:25:04;98893.72;;;23.42;93.07
33845;BME280;20145;43.118;25.694;2023-07-31T03:27:29;98891.22;;;23.40;93.11
33845;BME280;20145;43.118;25.694;2023-07-31T03:29:55;98894.69;;;23.41;93.40
33845;BME280;20145;43.118;25.694;2023-07-31T03:32:21;98901.00;;;23.38;93.25
33845;BME280;20145;43.118;25.694;2023-07-31T03:34:46;98891.53;;;23.35;94.07
33845;BME280;20145;43.118;25.694;2023-07-31T03:37:12;98901.25;;;23.35;94.98
33845;BME280;20145;43.118;25.694;2023-07-31T03:39:37;98906.41;;;23.36;94.90
33845;BME280;20145;43.118;25.694;2023-07-31T03:42:03;98895.59;;;23.28;95.59
33845;BME280;20145;43.118;25.694;2023-07-31T03:44:29;98901.09;;;23.25;95.54
33845;BME280;20145;43.118;25.694;2023-07-31T03:46:54;98905.38;;;23.26;97.23
33845;BME280;20145;43.118;25.694;2023-07-31T03:49:20;98905.47;;;23.25;97.24
33845;BME280;20145;43.118;25.694;2023-07-31T03:51:46;98901.28;;;23.22;97.44
33845;BME280;20145;43.118;25.694;2023-07-31T03:54:11;98898.78;;;23.21;97.58
33845;BME280;20145;43.118;25.694;2023-07-31T03:56:38;98899.50;;;23.23;98.63
33845;BME280;20145;43.118;25.694;2023-07-31T03:59:04;98907.28;;;23.24;97.12
33845;BME280;20145;43.118;25.694;2023-07-31T04:01:30;98906.22;;;23.27;97.52
33845;BME280;20145;43.118;25.694;2023-07-31T04:03:55;98911.63;;;23.25;98.53
33845;BME280;20145;43.118;25.694;2023-07-31T04:06:21;98909.69;;;23.27;98.52
33845;BME280;20145;43.118;25.694;2023-07-31T04:08:47;98904.72;;;23.35;99.50
33845;BME280;20145;43.118;25.694;2023-07-31T04:11:12;98917.56;;;23.40;99.60
33845;BME280;20145;43.118;25.694;2023-07-31T04:13:38;98910.72;;;23.37;99.36
33845;BME280;20145;43.118;25.694;2023-07-31T04:16:04;98912.66;;;23.47;99.87
33845;BME280;20145;43.118;25.694;2023-07-31T04:18:31;98916.63;;;23.52;100.00
33845;BME280;20145;43.118;25.694;2023-07-31T04:20:57;98916.31;;;23.57;100.00
33845;BME280;20145;43.118;25.694;2023-07-31T04:23:26;98915.75;;;23.65;99.25
33845;BME280;20145;43.118;25.694;2023-07-31T04:25:52;98917.19;;;23.69;99.99
33845;BME280;20145;43.118;25.694;2023-07-31T04:28:17;98925.75;;;23.72;99.50
33845;BME280;20145;43.118;25.694;2023-07-31T04:30:43;98925.06;;;23.81;99.05
33845;BME280;20145;43.118;25.694;2023-07-31T04:33:09;98932.03;;;23.94;99.08
33845;BME280;20145;43.118;25.694;2023-07-31T04:35:34;98930.50;;;24.02;97.76
33845;BME280;20145;43.118;25.694;2023-07-31T04:38:00;98928.38;;;24.08;95.42
33845;BME280;20145;43.118;25.694;2023-07-31T04:40:26;98936.44;;;24.17;94.31
33845;BME280;20145;43.118;25.694;2023-07-31T04:42:51;98937.63;;;24.24;93.58
33845;BME280;20145;43.118;25.694;2023-07-31T04:45:17;98939.94;;;24.40;93.36
33845;BME280;20145;43.118;25.694;2023-07-31T04:47:42;98944.38;;;24.40;93.53
33845;BME280;20145;43.118;25.694;2023-07-31T04:50:08;98936.47;;;24.40;91.50
33845;BME280;20145;43.118;25.694;2023-07-31T04:52:34;98950.19;;;24.45;91.45
33845;BME280;20145;43.118;25.694;2023-07-31T04:55:00;98950.78;;;24.48;90.08
33845;BME280;20145;43.118;25.694;2023-07-31T04:57:25;98948.88;;;24.51;89.85
33845;BME280;20145;43.118;25.694;2023-07-31T04:59:51;98944.09;;;24.56;89.52
33845;BME280;20145;43.118;25.694;2023-07-31T05:02:16;98956.31;;;24.57;88.15
33845;BME280;20145;43.118;25.694;2023-07-31T05:04:42;98961.34;;;24.60;88.96
33845;BME280;20145;43.118;25.694;2023-07-31T05:07:07;98950.69;;;24.61;87.45
33845;BME280;20145;43.118;25.694;2023-07-31T05:09:33;98955.34;;;24.58;87.78
33845;BME280;20145;43.118;25.694;2023-07-31T05:11:58;98959.06;;;24.66;86.78
33845;BME280;20145;43.118;25.694;2023-07-31T05:14:25;98950.78;;;24.60;86.22
33845;BME280;20145;43.118;25.694;2023-07-31T05:16:51;98952.25;;;24.64;87.23
33845;BME280;20145;43.118;25.694;2023-07-31T05:19:17;98950.22;;;24.67;85.61
33845;BME280;20145;43.118;25.694;2023-07-31T05:21:42;98949.72;;;24.62;85.16
33845;BME280;20145;43.118;25.694;2023-07-31T05:24:08;98961.69;;;24.66;85.10
33845;BME280;20145;43.118;25.694;2023-07-31T05:26:34;98968.69;;;24.79;85.09
33845;BME280;20145;43.118;25.694;2023-07-31T05:29:00;98967.94;;;24.88;84.94
33845;BME280;20145;43.118;25.694;2023-07-31T05:31:25;98962.81;;;24.98;85.36
33845;BME280;20145;43.118;25.694;2023-07-31T05:33:51;98961.97;;;24.86;84.28
33845;BME280;20145;43.118;25.694;2023-07-31T05:36:17;98958.13;;;24.90;84.76
33845;BME280;20145;43.118;25.694;2023-07-31T05:38:42;98957.53;;;24.98;84.46
33845;BME280;20145;43.118;25.694;2023-07-31T05:41:12;98959.66;;;25.04;84.02
33845;BME280;20145;43.118;25.694;2023-07-31T05:43:37;98968.56;;;25.03;83.65
33845;BME280;20145;43.118;25.694;2023-07-31T05:46:03;98969.75;;;25.10;84.45
33845;BME280;20145;43.118;25.694;2023-07-31T05:48:29;98972.53;;;25.08;82.90
33845;BME280;20145;43.118;25.694;2023-07-31T05:50:54;98984.41;;;25.14;83.95
33845;BME280;20145;43.118;25.694;2023-07-31T05:53:20;98973.22;;;25.22;85.78
33845;BME280;20145;43.118;25.694;2023-07-31T05:55:45;98982.59;;;25.26;83.26
33845;BME280;20145;43.118;25.694;2023-07-31T05:58:11;98979.00;;;25.27;83.27
33845;BME280;20145;43.118;25.694;2023-07-31T06:00:36;98994.50;;;25.20;82.64
33845;BME280;20145;43.118;25.694;2023-07-31T06:03:02;98988.72;;;25.26;82.54
33845;BME280;20145;43.118;25.694;2023-07-31T06:05:28;98996.03;;;25.00;82.37
33845;BME280;20145;43.118;25.694;2023-07-31T06:07:55;98986.44;;;24.99;82.56
33845;BME280;20145;43.118;25.694;2023-07-31T06:10:21;98996.28;;;25.08;81.86
33845;BME280;20145;43.118;25.694;2023-07-31T06:12:47;98996.16;;;24.99;82.67
33845;BME280;20145;43.118;25.694;2023-07-31T06:15:12;98996.97;;;24.99;82.90
33845;BME280;20145;43.118;25.694;2023-07-31T06:17:38;98992.09;;;25.06;81.80
33845;BME280;20145;43.118;25.694;2023-07-31T06:20:05;98987.16;;;25.01;82.07
33845;BME280;20145;43.118;25.694;2023-07-31T06:22:32;98988.72;;;25.04;82.30
33845;BME280;20145;43.118;25.694;2023-07-31T06:24:58;98995.81;;;25.03;81.32
33845;BME280;20145;43.118;25.694;2023-07-31T06:27:23;98991.13;;;24.96;81.06
33845;BME280;20145;43.118;25.694;2023-07-31T06:29:50;99005.97;;;25.08;81.30
33845;BME280;20145;43.118;25.694;2023-07-31T06:32:19;99009.25;;;25.11;81.06
33845;BME280;20145;43.118;25.694;2023-07-31T06:34:47;99006.72;;;25.21;80.81
33845;BME280;20145;43.118;25.694;2023-07-31T06:37:19;99009.25;;;25.00;81.28
33845;BME280;20145;43.118;25.694;2023-07-31T06:39:45;99016.53;;;24.97;81.76
33845;BME280;20145;43.118;25.694;2023-07-31T06:42:10;99018.81;;;24.90;80.95
33845;BME280;20145;43.118;25.694;2023-07-31T06:44:36;99015.81;;;24.72;82.49
33845;BME280;20145;43.118;25.694;2023-07-31T06:47:01;99021.22;;;24.70;82.41
33845;BME280;20145;43.118;25.694;2023-07-31T06:49:27;99018.72;;;24.91;82.12
33845;BME280;20145;43.118;25.694;2023-07-31T06:51:52;99008.28;;;25.01;81.33
33845;BME280;20145;43.118;25.694;2023-07-31T06:54:18;99022.47;;;25.23;80.39
33845;BME280;20145;43.118;25.694;2023-07-31T06:56:44;99021.25;;;25.27;80.70
33845;BME280;20145;43.118;25.694;2023-07-31T06:59:09;99024.47;;;25.08;81.13
33845;BME280;20145;43.118;25.694;2023-07-31T07:01:44;99034.22;;;25.30;80.75
33845;BME280;20145;43.118;25.694;2023-07-31T07:04:20;99008.75;;;25.06;80.74
33845;BME280;20145;43.118;25.694;2023-07-31T07:06:46;99018.47;;;24.95;81.13
33845;BME280;20145;43.118;25.694;2023-07-31T07:09:12;99013.19;;;24.95;81.33
33845;BME280;20145;43.118;25.694;2023-07-31T07:11:38;99014.38;;;24.79;81.18
33845;BME280;20145;43.118;25.694;2023-07-31T07:14:04;99020.97;;;24.85;81.26
33845;BME280;20145;43.118;25.694;2023-07-31T07:16:30;99017.34;;;24.63;81.11
33845;BME280;20145;43.118;25.694;2023-07-31T07:18:55;99031.16;;;24.67;81.01
33845;BME280;20145;43.118;25.694;2023-07-31T07:21:21;99021.81;;;24.74;79.85
33845;BME280;20145;43.118;25.694;2023-07-31T07:23:46;99024.19;;;24.77;80.87
33845;BME280;20145;43.118;25.694;2023-07-31T07:26:12;99028.19;;;24.94;80.50
33845;BME280;20145;43.118;25.694;2023-07-31T07:28:38;99029.63;;;25.09;79.77
33845;BME280;20145;43.118;25.694;2023-07-31T07:31:03;99028.56;;;25.01;80.16
33845;BME280;20145;43.118;25.694;2023-07-31T07:33:29;99029.66;;;25.21;79.51
33845;BME280;20145;43.118;25.694;2023-07-31T07:35:55;99028.47;;;25.36;78.79
33845;BME280;20145;43.118;25.694;2023-07-31T07:38:20;99028.56;;;25.34;77.42
33845;BME280;20145;43.118;25.694;2023-07-31T07:40:46;99031.81;;;25.38;77.69
33845;BME280;20145;43.118;25.694;2023-07-31T07:43:16;99027.75;;;25.34;76.18
33845;BME280;20145;43.118;25.694;2023-07-31T07:45:41;99025.66;;;25.49;76.91
33845;BME280;20145;43.118;25.694;2023-07-31T07:48:10;99036.66;;;25.76;76.33
33845;BME280;20145;43.118;25.694;2023-07-31T07:50:37;99038.63;;;25.86;74.16
33845;BME280;20145;43.118;25.694;2023-07-31T07:53:03;99036.28;;;25.92;74.35
33845;BME280;20145;43.118;25.694;2023-07-31T07:55:29;99034.06;;;26.09;73.88
33845;BME280;20145;43.118;25.694;2023-07-31T07:57:54;99036.16;;;26.05;72.25
33845;BME280;20145;43.118;25.694;2023-07-31T08:00:20;99037.34;;;26.01;72.26
33845;BME280;20145;43.118;25.694;2023-07-31T08:02:45;99037.38;;;25.90;71.69
33845;BME280;20145;43.118;25.694;2023-07-31T08:05:11;99035.16;;;26.06;72.86
33845;BME280;20145;43.118;25.694;2023-07-31T08:07:36;99042.88;;;26.30;72.76
33845;BME280;20145;43.118;25.694;2023-07-31T08:10:04;99031.16;;;26.44;71.63
33845;BME280;20145;43.118;25.694;2023-07-31T08:12:30;99037.56;;;26.62;70.63
33845;BME280;20145;43.118;25.694;2023-07-31T08:14:55;99040.97;;;26.74;69.15
33845;BME280;20145;43.118;25.694;2023-07-31T08:17:21;99036.03;;;26.90;69.86
33845;BME280;20145;43.118;25.694;2023-07-31T08:19:46;99045.59;;;27.03;69.51
33845;BME280;20145;43.118;25.694;2023-07-31T08:22:12;99046.16;;;27.06;68.78
33845;BME280;20145;43.118;25.694;2023-07-31T08:24:38;99043.13;;;27.11;68.05
33845;BME280;20145;43.118;25.694;2023-07-31T08:27:05;99048.19;;;27.24;68.14
33845;BME280;20145;43.118;25.694;2023-07-31T08:29:30;99049.75;;;27.26;67.65
33845;BME280;20145;43.118;25.694;2023-07-31T08:31:56;99051.44;;;27.27;68.23
33845;BME280;20145;43.118;25.694;2023-07-31T08:34:22;99045.66;;;27.53;67.37
33845;BME280;20145;43.118;25.694;2023-07-31T08:36:47;99035.78;;;27.65;66.30
33845;BME280;20145;43.118;25.694;2023-07-31T08:39:13;99043.03;;;27.63;64.31
33845;BME280;20145;43.118;25.694;2023-07-31T08:41:38;99045.28;;;27.57;64.67
33845;BME280;20145;43.118;25.694;2023-07-31T08:44:05;99036.34;;;27.68;64.83
33845;BME280;20145;43.118;25.694;2023-07-31T08:46:32;99036.00;;;27.83;64.10
33845;BME280;20145;43.118;25.694;2023-07-31T08:48:59;99043.66;;;27.95;62.07
33845;BME280;20145;43.118;25.694;2023-07-31T08:51:25;99031.41;;;27.94;62.27
33845;BME280;20145;43.118;25.694;2023-07-31T08:53:52;99038.09;;;27.89;63.68
33845;BME280;20145;43.118;25.694;2023-07-31T08:56:18;99040.47;;;27.92;62.31
33845;BME280;20145;43.118;25.694;2023-07-31T08:58:46;99036.97;;;28.01;62.18
33845;BME280;20145;43.118;25.694;2023-07-31T09:01:12;99026.09;;;28.14;61.87
33845;BME280;20145;43.118;25.694;2023-07-31T09:03:39;99023.56;;;27.83;62.20
33845;BME280;20145;43.118;25.694;2023-07-31T09:06:06;99036.75;;;27.64;62.88
33845;BME280;20145;43.118;25.694;2023-07-31T09:08:35;99021.41;;;27.67;63.77
33845;BME280;20145;43.118;25.694;2023-07-31T09:11:03;99022.97;;;27.70;62.96
33845;BME280;20145;43.118;25.694;2023-07-31T09:13:30;99028.81;;;27.73;62.63
33845;BME280;20145;43.118;25.694;2023-07-31T09:15:56;99029.00;;;27.82;62.66
33845;BME280;20145;43.118;25.694;2023-07-31T09:18:22;99020.91;;;27.83;61.46
33845;BME280;20145;43.118;25.694;2023-07-31T09:21:06;99025.66;;;28.18;61.92
33845;BME280;20145;43.118;25.694;2023-07-31T09:23:46;99032.78;;;28.66;61.31
33845;BME280;20145;43.118;25.694;2023-07-31T09:26:35;99021.91;;;28.97;58.46
33845;BME280;20145;43.118;25.694;2023-07-31T09:29:04;99031.06;;;28.75;59.12
33845;BME280;20145;43.118;25.694;2023-07-31T09:31:43;99035.56;;;28.26;59.83
33845;BME280;20145;43.118;25.694;2023-07-31T09:34:08;99022.31;;;28.16;61.07
33845;BME280;20145;43.118;25.694;2023-07-31T09:36:42;99026.34;;;27.82;61.94
33845;BME280;20145;43.118;25.694;2023-07-31T09:39:10;99027.50;;;28.08;62.12
33845;BME280;20145;43.118;25.694;2023-07-31T09:41:39;99025.53;;;28.49;60.43
33845;BME280;20145;43.118;25.694;2023-07-31T09:44:06;99025.22;;;28.72;58.54
33845;BME280;20145;43.118;25.694;2023-07-31T09:46:34;99019.03;;;28.71;58.20
33845;BME280;20145;43.118;25.694;2023-07-31T09:49:10;99011.25;;;28.69;58.41
33845;BME280;20145;43.118;25.694;2023-07-31T09:51:41;99014.44;;;28.73;58.39
33845;BME280;20145;43.118;25.694;2023-07-31T09:54:11;99000.25;;;28.92;58.18
33845;BME280;20145;43.118;25.694;2023-07-31T09:56:42;98999.38;;;29.11;56.26
33845;BME280;20145;43.118;25.694;2023-07-31T09:59:11;99000.31;;;28.73;57.54
33845;BME280;20145;43.118;25.694;2023-07-31T10:01:37;99004.03;;;28.42;57.98
33845;BME280;20145;43.118;25.694;2023-07-31T10:04:05;98998.72;;;28.23;58.75
33845;BME280;20145;43.118;25.694;2023-07-31T10:06:34;99002.38;;;28.02;60.75
33845;BME280;20145;43.118;25.694;2023-07-31T10:09:00;98996.75;;;27.96;59.70
33845;BME280;20145;43.118;25.694;2023-07-31T10:11:27;98997.88;;;28.03;59.67
33845;BME280;20145;43.118;25.694;2023-07-31T10:13:55;98982.50;;;28.26;58.90
33845;BME280;20145;43.118;25.694;2023-07-31T10:16:21;98996.84;;;28.62;58.04
33845;BME280;20145;43.118;25.694;2023-07-31T10:18:47;98996.97;;;28.71;56.79
33845;BME280;20145;43.118;25.694;2023-07-31T10:21:15;98987.03;;;28.73;56.68
33845;BME280;20145;43.118;25.694;2023-07-31T10:23:42;98985.03;;;28.84;56.30
33845;BME280;20145;43.118;25.694;2023-07-31T10:26:08;98988.59;;;28.65;56.97
33845;BME280;20145;43.118;25.694;2023-07-31T10:28:36;98990.28;;;28.57;56.68
33845;BME280;20145;43.118;25.694;2023-07-31T10:31:03;98987.53;;;28.49;58.20
33845;BME280;20145;43.118;25.694;2023-07-31T10:33:29;98996.88;;;28.53;58.41
33845;BME280;20145;43.118;25.694;2023-07-31T10:36:28;98997.97;;;28.60;58.12
33845;BME280;20145;43.118;25.694;2023-07-31T10:38:55;98990.00;;;28.69;57.95
33845;BME280;20145;43.118;25.694;2023-07-31T10:41:28;98993.25;;;28.54;57.79
33845;BME280;20145;43.118;25.694;2023-07-31T10:43:58;99001.09;;;28.92;57.46
33845;BME280;20145;43.118;25.694;2023-07-31T10:46:24;98990.16;;;29.33;55.45
33845;BME280;20145;43.118;25.694;2023-07-31T10:48:57;98991.53;;;29.37;55.19
33845;BME280;20145;43.118;25.694;2023-07-31T10:51:32;98980.38;;;29.33;55.82
33845;BME280;20145;43.118;25.694;2023-07-31T10:54:16;98986.53;;;28.97;55.92
33845;BME280;20145;43.118;25.694;2023-07-31T10:56:46;98991.16;;;28.57;58.28
33845;BME280;20145;43.118;25.694;2023-07-31T10:59:13;98991.59;;;28.04;61.50
33845;BME280;20145;43.118;25.694;2023-07-31T11:01:55;98996.06;;;28.13;62.35
33845;BME280;20145;43.118;25.694;2023-07-31T11:04:25;98982.09;;;28.31;61.31
33845;BME280;20145;43.118;25.694;2023-07-31T11:07:01;98985.94;;;28.65;59.68
33845;BME280;20145;43.118;25.694;2023-07-31T11:09:32;98981.50;;;28.66;59.61
33845;BME280;20145;43.118;25.694;2023-07-31T11:11:59;98970.19;;;28.91;59.30
33845;BME280;20145;43.118;25.694;2023-07-31T11:14:25;98966.13;;;28.97;58.83
33845;BME280;20145;43.118;25.694;2023-07-31T11:16:51;98975.94;;;28.87;59.01
33845;BME280;20145;43.118;25.694;2023-07-31T11:19:26;98946.16;;;28.46;58.18
33845;BME280;20145;43.118;25.694;2023-07-31T11:21:52;98947.94;;;28.65;58.17
33845;BME280;20145;43.118;25.694;2023-07-31T11:24:18;98969.25;;;28.83;57.49
33845;BME280;20145;43.118;25.694;2023-07-31T11:26:53;98952.38;;;28.74;56.85
33845;BME280;20145;43.118;25.694;2023-07-31T11:29:20;98973.47;;;28.76;55.94
33845;BME280;20145;43.118;25.694;2023-07-31T11:31:47;98978.38;;;28.71;57.93
33845;BME280;20145;43.118;25.694;2023-07-31T11:34:13;98957.06;;;28.53;57.17
33845;BME280;20145;43.118;25.694;2023-07-31T11:36:39;98965.50;;;28.76;56.79
33845;BME280;20145;43.118;25.694;2023-07-31T11:39:08;98944.44;;;28.74;56.56
33845;BME280;20145;43.118;25.694;2023-07-31T11:41:34;98954.47;;;28.71;56.82
33845;BME280;20145;43.118;25.694;2023-07-31T11:44:00;98954.00;;;28.48;57.32
33845;BME280;20145;43.118;25.694;2023-07-31T11:46:26;98948.38;;;28.60;58.38
33845;BME280;20145;43.118;25.694;2023-07-31T11:48:52;98948.75;;;28.75;56.30
33845;BME280;20145;43.118;25.694;2023-07-31T11:51:24;98950.75;;;28.63;57.18
33845;BME280;20145;43.118;25.694;2023-07-31T11:53:57;98939.66;;;28.68;57.89
33845;BME280;20145;43.118;25.694;2023-07-31T11:56:25;98935.13;;;28.88;57.55
33845;BME280;20145;43.118;25.694;2023-07-31T11:58:58;98932.22;;;28.81;57.06
33845;BME280;20145;43.118;25.694;2023-07-31T12:01:25;98925.56;;;29.32;55.80
33845;BME280;20145;43.118;25.694;2023-07-31T12:03:53;98926.75;;;29.38;55.26
33845;BME280;20145;43.118;25.694;2023-07-31T12:06:19;98927.78;;;29.73;55.73
33845;BME280;20145;43.118;25.694;2023-07-31T12:08:46;98908.66;;;29.60;54.41
33845;BME280;20145;43.118;25.694;2023-07-31T12:11:12;98916.66;;;29.60;54.98
33845;BME280;20145;43.118;25.694;2023-07-31T12:13:40;98909.50;;;29.24;55.12
33845;BME280;20145;43.118;25.694;2023-07-31T12:16:06;98913.03;;;29.15;55.25
33845;BME280;20145;43.118;25.694;2023-07-31T12:18:36;98911.44;;;29.04;55.21
33845;BME280;20145;43.118;25.694;2023-07-31T12:21:04;98911.13;;;29.35;54.82
33845;BME280;20145;43.118;25.694;2023-07-31T12:23:31;98906.13;;;29.68;54.53
33845;BME280;20145;43.118;25.694;2023-07-31T12:28:47;98908.16;;;29.38;54.71
33845;BME280;20145;43.118;25.694;2023-07-31T12:31:15;98909.22;;;29.27;55.75
33845;BME280;20145;43.118;25.694;2023-07-31T12:33:42;98898.84;;;29.06;55.33
33845;BME280;20145;43.118;25.694;2023-07-31T12:36:16;98902.63;;;29.04;56.13
33845;BME280;20145;43.118;25.694;2023-07-31T12:38:43;98896.97;;;29.17;55.12
33845;BME280;20145;43.118;25.694;2023-07-31T12:41:09;98904.72;;;29.10;55.75
33845;BME280;20145;43.118;25.694;2023-07-31T12:43:36;98897.44;;;29.30;55.37
33845;BME280;20145;43.118;25.694;2023-07-31T12:46:02;98906.25;;;29.48;55.03
33845;BME280;20145;43.118;25.694;2023-07-31T12:48:28;98899.97;;;29.49;54.90
33845;BME280;20145;43.118;25.694;2023-07-31T12:50:54;98891.44;;;29.46;55.71
33845;BME280;20145;43.118;25.694;2023-07-31T12:53:20;98890.97;;;29.50;55.39
33845;BME280;20145;43.118;25.694;2023-07-31T12:55:46;98903.84;;;29.55;55.79
33845;BME280;20145;43.118;25.694;2023-07-31T12:58:12;98906.00;;;29.60;55.69